Time;durP1;ratioP1;P1;durP2;ratioP2;P2;SDS_P1;SDS_P2;PMS_P1;PMS_P2;Temp;Humidity;BMP_temperature;BMP_pressure;BME280_temperature;BME280_humidity;BME280_pressure;Samples;Min_cycle;Max_cycle;Signal;HPM_P1;HPM_P2
2020/12/25 00:02:07;;;;;;;3.30;3.00;;;;;;;0.99;94.09;99131.70;1850629;77;21483;-68
2020/12/25 00:04:35;;;;;;;3.83;3.52;;;;;;;0.96;94.26;99144.61;1850675;77;21511;-67
2020/12/25 00:07:06;;;;;;;4.00;3.67;;;;;;;0.95;94.26;99128.84;1850647;77;22267;-69
2020/12/25 00:09:36;;;;;;;4.30;3.90;;;;;;;0.92;94.27;99123.36;1850506;77;20947;-67
2020/12/25 00:12:07;;;;;;;3.62;3.25;;;;;;;0.91;94.32;99124.25;1850653;77;21365;-68
2020/12/25 00:14:35;;;;;;;3.45;3.15;;;;;;;0.88;94.37;99124.78;1850630;77;20920;-67
2020/12/25 00:17:04;;;;;;;3.67;3.37;;;;;;;0.85;94.48;99110.34;1850756;77;21469;-68
2020/12/25 00:19:32;;;;;;;3.72;3.42;;;;;;;0.84;94.57;99125.33;1850605;77;22144;-69
2020/12/25 00:22:00;;;;;;;3.83;3.30;;;;;;;0.83;94.71;99106.98;1850547;77;21587;-68
2020/12/25 00:24:29;;;;;;;3.30;3.00;;;;;;;0.82;94.71;99107.03;1850609;77;20994;-68
2020/12/25 00:26:57;;;;;;;3.70;3.40;;;;;;;0.79;94.78;99096.91;1850592;77;21591;-67
2020/12/25 00:29:25;;;;;;;3.90;3.60;;;;;;;0.78;94.85;99093.51;1850627;77;21559;-68
2020/12/25 00:31:54;;;;;;;3.70;3.40;;;;;;;0.77;94.95;99103.36;1850665;77;22401;-69
2020/12/25 00:34:23;;;;;;;3.55;3.33;;;;;;;0.77;95.10;99084.59;1850543;77;20982;-68
2020/12/25 00:36:51;;;;;;;4.03;3.40;;;;;;;0.76;95.21;99090.59;1850621;77;21445;-70
2020/12/25 00:39:19;;;;;;;3.75;3.45;;;;;;;0.76;95.32;99072.66;1850604;77;21559;-68
2020/12/25 00:41:49;;;;;;;3.77;3.37;;;;;;;0.77;95.30;99075.17;1850646;77;21599;-68
2020/12/25 00:44:18;;;;;;;3.90;3.60;;;;;;;0.77;95.41;99073.06;1817377;77;21249;-67
2020/12/25 00:46:47;;;;;;;3.70;3.40;;;;;;;0.79;95.51;99061.04;1850556;77;21053;-68
2020/12/25 00:49:17;;;;;;;3.15;2.95;;;;;;;0.81;95.53;99053.66;1850433;77;21607;-68
2020/12/25 00:51:49;;;;;;;2.95;2.75;;;;;;;0.81;95.50;99053.66;1850572;77;20908;-68
2020/12/25 00:54:19;;;;;;;3.72;3.42;;;;;;;0.81;95.47;99043.86;1850647;77;21563;-67
2020/12/25 00:56:49;;;;;;;3.40;3.20;;;;;;;0.81;95.48;99051.55;1848451;77;21566;-68
2020/12/25 00:59:19;;;;;;;3.20;2.92;;;;;;;0.80;95.51;99037.09;1850487;77;21598;-69
2020/12/25 01:01:52;;;;;;;3.00;2.80;;;;;;;0.80;95.57;99044.30;1849924;77;21605;-68
2020/12/25 01:04:21;;;;;;;3.20;3.00;;;;;;;0.80;95.58;99026.84;1849953;77;20998;-68
2020/12/25 01:06:49;;;;;;;3.22;3.02;;;;;;;0.79;95.64;99026.00;1850003;77;21568;-69
2020/12/25 01:09:17;;;;;;;3.10;2.90;;;;;;;0.78;95.70;99018.36;1849872;77;22379;-67
2020/12/25 01:11:47;;;;;;;3.37;3.08;;;;;;;0.78;95.84;99018.36;1849916;77;21852;-67
2020/12/25 01:14:15;;;;;;;3.10;2.90;;;;;;;0.79;95.85;99002.11;1850061;77;21477;-67
2020/12/25 01:16:44;;;;;;;3.05;2.85;;;;;;;0.79;95.90;98999.55;1849938;77;21484;-68
2020/12/25 01:19:12;;;;;;;2.95;2.75;;;;;;;0.81;95.95;99008.82;1849983;77;21528;-69
2020/12/25 01:21:43;;;;;;;2.92;2.72;;;;;;;0.84;95.95;98997.63;1849952;77;21492;-66
2020/12/25 01:24:12;;;;;;;2.90;2.70;;;;;;;0.82;95.92;98993.84;1849873;77;21489;-68
2020/12/25 01:26:41;;;;;;;2.80;2.60;;;;;;;0.85;96.02;98992.91;1849989;77;21433;-67
2020/12/25 01:29:09;;;;;;;2.72;2.52;;;;;;;0.87;96.00;98998.81;1849848;77;21591;-67
2020/12/25 01:31:37;;;;;;;2.62;2.42;;;;;;;0.86;95.96;98985.16;1850013;77;21619;-69
2020/12/25 01:34:06;;;;;;;3.10;2.90;;;;;;;0.89;95.92;98993.20;1849959;77;22301;-67
2020/12/25 01:36:34;;;;;;;2.35;2.22;;;;;;;0.88;95.84;98991.52;1849916;77;21658;-68
2020/12/25 01:39:03;;;;;;;2.72;2.50;;;;;;;0.87;95.83;98984.72;1849930;77;21349;-68
2020/12/25 08:20:36;;;;;;;19.65;12.60;;;;;;;3.18;100.00;99104.42;1890583;76;22539;-68
2020/12/25 08:23:04;;;;;;;18.50;12.30;;;;;;;3.26;100.00;99102.34;1861391;77;21470;-67
2020/12/25 08:25:33;;;;;;;17.00;11.97;;;;;;;3.36;100.00;99107.95;1861441;77;22167;-68
2020/12/25 08:28:01;;;;;;;18.23;13.38;;;;;;;3.44;100.00;99097.34;1861350;77;21434;-66
2020/12/25 08:30:31;;;;;;;16.93;13.18;;;;;;;3.51;100.00;99105.20;1852974;77;20977;-67
2020/12/25 08:33:00;;;;;;;20.15;12.88;;;;;;;3.56;100.00;99104.55;1861368;77;21526;-68
2020/12/25 08:35:29;;;;;;;16.07;12.47;;;;;;;3.61;100.00;99102.14;1861458;77;21458;-68
2020/12/25 08:38:02;;;;;;;14.55;11.12;;;;;;;3.68;100.00;99111.28;1861416;77;21423;-68
2020/12/25 08:40:33;;;;;;;14.25;10.95;;;;;;;3.80;100.00;99110.38;1861452;77;21434;-68
2020/12/25 08:43:15;;;;;;;14.63;11.78;;;;;;;3.88;100.00;99100.59;1861528;77;21013;-69
2020/12/25 08:46:00;;;;;;;16.00;11.33;;;;;;;3.94;100.00;99097.75;1861536;77;21004;-69
2020/12/25 08:48:31;;;;;;;16.27;11.03;;;;;;;4.00;99.80;99100.86;1861923;77;20941;-67
2020/12/25 08:51:10;;;;;;;15.65;11.00;;;;;;;4.05;99.50;99101.95;1861124;77;22134;-68
2020/12/25 08:53:39;;;;;;;12.80;10.50;;;;;;;4.10;99.31;99102.58;1861096;77;21339;-69
2020/12/25 08:56:21;;;;;;;13.22;10.25;;;;;;;4.14;99.06;99101.99;1861395;77;20993;-66
2020/12/25 08:59:03;;;;;;;15.05;10.60;;;;;;;4.17;98.65;99095.42;1861407;77;21506;-68
2020/12/25 09:01:34;;;;;;;16.85;10.68;;;;;;;4.19;98.41;99102.17;1861583;77;21557;-69
2020/12/25 09:04:03;;;;;;;11.22;9.83;;;;;;;4.23;98.24;99112.73;1861576;77;22183;-67
2020/12/25 09:06:31;;;;;;;11.38;10.18;;;;;;;4.25;97.96;99111.38;1861719;77;20957;-68
2020/12/25 09:09:00;;;;;;;12.78;9.63;;;;;;;4.26;97.75;99112.59;1861594;77;21530;-67
2020/12/25 09:11:28;;;;;;;17.20;9.68;;;;;;;4.28;97.50;99107.38;1861419;77;20991;-68
2020/12/25 09:13:56;;;;;;;10.45;9.20;;;;;;;4.27;97.28;99110.85;1861456;77;21482;-68
2020/12/25 09:16:24;;;;;;;11.38;9.23;;;;;;;4.28;97.18;99107.38;1861540;77;22307;-69
2020/12/25 09:18:53;;;;;;;13.45;9.95;;;;;;;4.28;97.06;99108.20;1859816;77;21692;-69
2020/12/25 09:21:21;;;;;;;12.05;9.35;;;;;;;4.29;96.88;99111.63;1850459;77;21573;-66
2020/12/25 09:23:50;;;;;;;12.50;10.25;;;;;;;4.30;96.81;99119.73;1850412;77;20890;-67
2020/12/25 09:26:18;;;;;;;13.75;10.68;;;;;;;4.28;96.60;99116.39;1850519;77;21366;-68
2020/12/25 09:28:46;;;;;;;12.05;9.58;;;;;;;4.28;96.45;99112.08;1850464;77;21368;-68
2020/12/25 09:31:15;;;;;;;11.25;9.70;;;;;;;4.30;96.36;99108.14;1850084;77;21000;-69
2020/12/25 09:33:43;;;;;;;14.40;10.05;;;;;;;4.30;96.27;99104.27;1849821;77;21054;-68
2020/12/25 09:36:12;;;;;;;13.30;10.60;;;;;;;4.32;96.15;99108.45;1849730;77;21077;-67
2020/12/25 09:38:44;;;;;;;13.58;9.18;;;;;;;4.34;96.03;99114.38;1849933;77;21566;-68
2020/12/25 09:41:14;;;;;;;13.08;9.83;;;;;;;4.38;95.95;99120.69;1849994;77;22251;-67
2020/12/25 09:43:42;;;;;;;15.68;10.30;;;;;;;4.39;95.74;99118.04;1849845;77;21542;-69
2020/12/25 09:46:11;;;;;;;13.08;10.43;;;;;;;4.42;95.69;99111.88;1849844;77;21454;-69
2020/12/25 09:48:39;;;;;;;14.95;11.10;;;;;;;4.43;95.50;99122.12;1850081;77;21638;-69
2020/12/25 09:51:08;;;;;;;13.75;11.60;;;;;;;4.45;95.42;99116.44;1849884;77;20921;-68
2020/12/25 09:53:37;;;;;;;14.50;11.63;;;;;;;4.47;95.26;99123.65;1849749;77;21383;-66
2020/12/25 09:56:05;;;;;;;15.03;12.28;;;;;;;4.49;95.18;99119.27;1849695;77;21495;-69
2020/12/25 09:58:34;;;;;;;15.65;12.53;;;;;;;4.53;95.07;99117.37;1849670;77;20953;-69
2020/12/25 10:01:03;;;;;;;14.78;12.07;;;;;;;4.55;95.04;99124.59;1849632;77;21577;-69
2020/12/25 10:03:31;;;;;;;13.70;11.33;;;;;;;4.58;94.98;99125.29;1849735;77;21545;-68
2020/12/25 10:05:59;;;;;;;15.83;12.47;;;;;;;4.62;94.87;99124.70;1849694;77;22145;-68
2020/12/25 10:08:28;;;;;;;16.37;11.93;;;;;;;4.62;94.60;99130.69;1849656;77;21498;-68
2020/12/25 10:10:56;;;;;;;17.92;13.55;;;;;;;4.63;94.61;99132.36;1849657;77;21462;-68
2020/12/25 10:13:25;;;;;;;16.37;13.05;;;;;;;4.64;94.59;99135.33;1849569;77;20937;-69
2020/12/25 10:15:54;;;;;;;15.58;12.18;;;;;;;4.66;94.46;99130.94;1849690;77;21376;-69
2020/12/25 10:18:22;;;;;;;13.72;11.18;;;;;;;4.68;94.37;99133.44;1849670;77;22190;-68
2020/12/25 10:20:52;;;;;;;15.40;11.57;;;;;;;4.69;94.24;99128.67;1856646;77;21431;-68
2020/12/25 10:23:20;;;;;;;13.20;10.93;;;;;;;4.70;94.17;99126.47;1858273;77;20981;-68
2020/12/25 10:25:48;;;;;;;13.98;11.10;;;;;;;4.71;94.08;99124.28;1858292;77;21463;-69
2020/12/25 10:28:17;;;;;;;14.43;11.10;;;;;;;4.75;94.03;99127.55;1858381;77;21423;-68
2020/12/25 10:30:45;;;;;;;13.15;10.15;;;;;;;4.77;93.98;99127.86;1858393;77;22329;-68
2020/12/25 10:33:14;;;;;;;12.03;10.55;;;;;;;4.79;93.88;99131.20;1827964;77;21534;-67
2020/12/25 10:35:44;;;;;;;11.90;10.03;;;;;;;4.82;93.85;99138.77;1858336;77;20992;-66
2020/12/25 10:38:13;;;;;;;13.72;9.73;;;;;;;4.86;93.82;99139.47;1858244;77;20977;-67
2020/12/25 10:40:41;;;;;;;14.30;10.93;;;;;;;4.90;93.74;99143.58;1858292;77;21423;-67
2020/12/25 10:43:10;;;;;;;12.07;9.98;;;;;;;4.94;93.59;99136.91;1858272;77;22090;-67
2020/12/25 10:45:39;;;;;;;10.78;9.58;;;;;;;4.98;93.47;99138.44;1858206;77;21575;-68
2020/12/25 10:48:08;;;;;;;11.80;9.95;;;;;;;5.05;93.53;99130.41;1858306;77;21486;-69
2020/12/25 10:50:37;;;;;;;13.13;10.50;;;;;;;5.12;93.41;99142.11;1828007;77;21340;-66
2020/12/25 10:53:05;;;;;;;13.53;10.03;;;;;;;5.16;93.11;99141.06;1858280;77;21486;-67
2020/12/25 10:55:34;;;;;;;12.40;9.83;;;;;;;5.22;92.99;99137.70;1858286;77;22301;-67
2020/12/25 10:58:02;;;;;;;13.68;10.20;;;;;;;5.28;92.88;99137.86;1858276;77;21544;-64
2020/12/25 11:00:30;;;;;;;13.18;11.80;;;;;;;5.33;92.62;99135.89;1858233;77;21383;-66
2020/12/25 11:02:58;;;;;;;14.50;11.40;;;;;;;5.38;92.33;99129.22;1858245;77;20913;-69
2020/12/25 11:05:27;;;;;;;13.28;11.48;;;;;;;5.42;92.16;99122.99;1858253;77;21471;-69
2020/12/25 11:07:57;;;;;;;16.23;13.00;;;;;;;5.47;92.00;99121.86;1858198;77;22321;-67
2020/12/25 11:10:26;;;;;;;21.17;15.30;;;;;;;5.51;91.89;99116.09;1858276;77;21368;-64
2020/12/25 11:12:54;;;;;;;15.30;12.75;;;;;;;5.54;91.56;99112.90;1853413;77;22006;-68
2020/12/25 11:15:22;;;;;;;15.78;13.18;;;;;;;5.59;91.50;99112.67;1824226;78;21514;-68
2020/12/25 11:17:51;;;;;;;15.90;12.47;;;;;;;5.64;91.30;99114.53;1823383;78;21616;-67
2020/12/25 11:20:19;;;;;;;12.60;11.10;;;;;;;5.67;91.18;99132.00;1819189;78;21960;-64
2020/12/25 11:22:47;;;;;;;13.18;10.50;;;;;;;5.72;91.06;99127.06;1814450;79;21693;-66
2020/12/25 11:25:16;;;;;;;15.03;11.35;;;;;;;5.74;90.92;99131.24;1814436;79;21135;-66
2020/12/25 11:27:44;;;;;;;12.93;11.03;;;;;;;5.79;90.71;99129.27;1814468;79;21633;-67
2020/12/25 11:30:12;;;;;;;13.35;10.90;;;;;;;5.81;90.49;99133.90;1814552;78;21645;-66
2020/12/25 11:32:41;;;;;;;16.02;10.48;;;;;;;5.86;90.46;99132.37;1815252;79;22314;-67
2020/12/25 11:35:09;;;;;;;13.10;11.48;;;;;;;5.88;90.28;99128.80;1815659;79;21574;-66
2020/12/25 11:37:39;;;;;;;17.17;13.03;;;;;;;5.90;90.04;99124.42;1815765;79;21232;-68
2020/12/25 11:40:07;;;;;;;17.75;15.10;;;;;;;5.92;89.84;99132.09;1815610;79;21555;-63
2020/12/25 11:42:35;;;;;;;34.65;22.02;;;;;;;5.91;89.66;99134.30;1815714;79;21497;-68
2020/12/25 11:45:04;;;;;;;16.35;12.00;;;;;;;5.90;89.70;99137.34;1815663;79;22555;-64
2020/12/25 11:47:32;;;;;;;15.83;12.05;;;;;;;5.90;89.64;99134.76;1815598;79;20917;-64
2020/12/25 11:50:00;;;;;;;13.93;11.22;;;;;;;5.92;89.54;99137.27;1815669;79;21589;-62
2020/12/25 11:52:32;;;;;;;12.98;10.85;;;;;;;5.94;89.56;99134.14;1815631;79;21486;-66
2020/12/25 11:55:01;;;;;;;12.88;10.85;;;;;;;5.95;89.34;99130.65;1815695;79;21008;-60
2020/12/25 11:57:29;;;;;;;17.77;13.90;;;;;;;5.94;89.25;99122.06;1815670;79;22313;-62
2020/12/25 12:00:00;;;;;;;15.08;11.45;;;;;;;5.94;89.13;99125.10;1815610;79;21490;-62
2020/12/25 12:02:28;;;;;;;13.72;10.53;;;;;;;5.90;88.97;99127.00;1815719;79;21466;-60
2020/12/25 12:04:56;;;;;;;13.55;10.98;;;;;;;5.86;88.93;99130.63;1815653;78;21355;-66
2020/12/25 12:07:24;;;;;;;14.33;11.30;;;;;;;5.79;88.93;99135.72;1815723;79;21351;-66
2020/12/25 12:09:54;;;;;;;14.03;11.63;;;;;;;5.72;89.06;99129.65;1815619;78;21251;-60
2020/12/25 12:12:22;;;;;;;18.20;12.45;;;;;;;5.65;89.36;99127.83;1815716;79;21585;-68
2020/12/25 12:14:51;;;;;;;15.63;11.08;;;;;;;5.60;89.52;99131.09;1815629;79;21608;-67
2020/12/25 12:17:19;;;;;;;13.20;11.80;;;;;;;5.55;89.70;99135.22;1815654;78;21522;-69
2020/12/25 12:19:47;;;;;;;14.33;11.35;;;;;;;5.48;89.83;99137.73;1815609;79;21443;-69
2020/12/25 12:22:16;;;;;;;15.20;11.48;;;;;;;5.43;90.10;99138.86;1815672;79;21186;-67
2020/12/25 12:24:45;;;;;;;13.35;10.88;;;;;;;5.39;90.17;99138.17;1815590;78;21522;-63
2020/12/25 12:27:13;;;;;;;15.72;12.40;;;;;;;5.34;90.29;99141.44;1815686;79;21546;-67
2020/12/25 12:29:42;;;;;;;16.02;12.90;;;;;;;5.28;90.27;99139.98;1815624;79;21573;-66
2020/12/25 12:32:10;;;;;;;23.87;18.25;;;;;;;5.22;90.30;99136.86;1815667;79;21597;-69
2020/12/25 12:34:38;;;;;;;27.98;20.45;;;;;;;5.17;90.37;99139.70;1815620;79;22380;-67
2020/12/25 12:37:07;;;;;;;23.45;17.65;;;;;;;5.14;90.57;99142.88;1815578;79;20941;-65
2020/12/25 12:39:36;;;;;;;26.65;19.32;;;;;;;5.12;90.84;99148.56;1815634;79;21494;-63
2020/12/25 12:42:04;;;;;;;27.07;18.52;;;;;;;5.10;90.96;99156.38;1815611;79;21526;-68
2020/12/25 12:44:32;;;;;;;25.37;18.87;;;;;;;5.09;91.06;99160.32;1815672;79;21561;-68
2020/12/25 12:47:01;;;;;;;19.00;15.30;;;;;;;5.07;91.04;99163.42;1815762;79;21988;-68
2020/12/25 12:49:29;;;;;;;17.23;14.00;;;;;;;5.05;91.03;99168.66;1815566;79;21574;-67
2020/12/25 12:51:58;;;;;;;18.73;14.25;;;;;;;5.00;91.02;99170.16;1815640;79;21502;-67
2020/12/25 12:54:26;;;;;;;18.40;13.58;;;;;;;4.98;90.97;99173.72;1815554;79;21490;-62
2020/12/25 12:56:54;;;;;;;19.95;14.35;;;;;;;4.94;90.98;99181.22;1815767;79;21467;-69
2020/12/25 12:59:23;;;;;;;21.12;15.68;;;;;;;4.89;91.07;99181.88;1815759;79;22034;-69
2020/12/25 13:01:53;;;;;;;16.65;14.63;;;;;;;4.87;91.34;99188.86;1815590;79;21592;-70
2020/12/25 13:04:22;;;;;;;15.63;11.75;;;;;;;4.87;91.60;99175.50;1793299;79;21009;-68
2020/12/25 13:06:50;;;;;;;14.55;11.95;;;;;;;4.89;91.53;99185.75;1815761;78;21609;-67
2020/12/25 13:09:18;;;;;;;14.30;12.05;;;;;;;4.88;91.43;99182.34;1815889;79;21477;-63
2020/12/25 13:11:49;;;;;;;16.62;13.75;;;;;;;4.88;91.44;99180.20;1812475;79;21202;-67
2020/12/25 13:14:17;;;;;;;21.80;16.42;;;;;;;4.90;91.56;99171.95;1815829;79;21531;-63
2020/12/25 13:16:45;;;;;;;19.65;14.63;;;;;;;4.91;91.48;99171.04;1815827;79;21491;-67
2020/12/25 13:19:14;;;;;;;16.07;13.05;;;;;;;4.91;91.22;99171.88;1815720;78;20989;-65
2020/12/25 13:21:42;;;;;;;17.80;12.65;;;;;;;4.92;91.00;99170.97;1815720;79;21569;-68
2020/12/25 13:24:10;;;;;;;13.48;12.07;;;;;;;4.91;90.88;99171.88;1815797;79;21479;-69
2020/12/25 13:26:39;;;;;;;13.72;12.00;;;;;;;4.90;90.67;99177.11;1815699;79;21494;-69
2020/12/25 13:29:07;;;;;;;14.10;11.73;;;;;;;4.86;90.62;99176.41;1815743;78;20927;-69
2020/12/25 13:31:36;;;;;;;14.33;11.50;;;;;;;4.83;90.64;99170.10;1815730;79;21503;-69
2020/12/25 13:34:07;;;;;;;16.85;13.75;;;;;;;4.81;90.60;99168.50;1815998;77;21553;-66
2020/12/25 13:36:36;;;;;;;16.20;12.75;;;;;;;4.79;90.72;99164.73;1817787;77;21369;-69
2020/12/25 13:39:05;;;;;;;14.80;12.28;;;;;;;4.77;90.83;99161.84;1815251;78;21637;-68
2020/12/25 13:41:33;;;;;;;13.85;12.30;;;;;;;4.75;90.95;99160.63;1815442;79;21558;-69
2020/12/25 13:44:05;;;;;;;17.45;11.83;;;;;;;4.75;90.97;99164.48;1815726;79;21550;-69
2020/12/25 13:46:32;;;;;;;15.05;11.53;;;;;;;4.74;90.90;99165.39;1815906;79;21462;-68
2020/12/25 13:49:03;;;;;;;15.10;12.43;;;;;;;4.71;90.77;99176.30;1815840;78;21367;-68
2020/12/25 13:51:31;;;;;;;13.68;11.25;;;;;;;4.67;90.64;99178.19;1815680;79;21000;-69
2020/12/25 13:53:59;;;;;;;13.83;11.00;;;;;;;4.61;90.48;99179.30;1815740;78;21601;-69
2020/12/25 13:56:28;;;;;;;19.15;11.97;;;;;;;4.56;90.39;99175.25;1815735;79;21494;-69
2020/12/25 13:58:58;;;;;;;18.80;14.03;;;;;;;4.49;90.40;99179.84;1815826;79;21372;-68
2020/12/25 14:01:26;;;;;;;19.57;15.85;;;;;;;4.43;90.20;99188.30;1815758;79;22275;-68
2020/12/25 14:03:54;;;;;;;22.80;18.30;;;;;;;4.32;90.10;99189.63;1815688;79;21522;-69
2020/12/25 14:06:29;;;;;;;24.12;18.42;;;;;;;4.24;90.09;99181.84;1815768;79;21578;-69
2020/12/25 14:08:57;;;;;;;31.20;20.82;;;;;;;4.16;90.34;99191.20;1815816;78;21565;-69
2020/12/25 14:11:26;;;;;;;27.22;20.88;;;;;;;4.10;90.44;99187.59;1815791;79;20925;-70
2020/12/25 14:13:54;;;;;;;28.12;20.45;;;;;;;4.07;90.71;99199.77;1815810;79;22129;-70
2020/12/25 14:16:25;;;;;;;25.17;19.30;;;;;;;4.03;90.83;99205.05;1815712;79;21478;-69
2020/12/25 14:18:53;;;;;;;22.62;18.25;;;;;;;4.00;90.99;99206.47;1815685;79;21535;-70
2020/12/25 14:21:31;;;;;;;20.50;16.05;;;;;;;4.01;91.07;99211.17;1815807;78;21076;-69
2020/12/25 14:23:59;;;;;;;20.40;16.48;;;;;;;3.99;91.14;99211.27;1816345;79;21002;-69
2020/12/25 14:26:28;;;;;;;23.30;17.02;;;;;;;4.00;91.15;99216.77;1816302;79;21494;-69
2020/12/25 14:28:56;;;;;;;20.52;16.42;;;;;;;4.02;91.19;99221.86;1816232;79;21558;-68
2020/12/25 14:31:26;;;;;;;21.80;15.83;;;;;;;4.02;91.11;99225.27;1816253;79;21499;-68
2020/12/25 14:33:54;;;;;;;22.15;16.00;;;;;;;4.03;91.18;99229.52;1816255;79;21570;-70
2020/12/25 14:36:22;;;;;;;22.07;16.73;;;;;;;4.03;91.09;99223.53;1816321;79;21550;-70
2020/12/25 14:38:51;;;;;;;23.87;17.98;;;;;;;4.04;91.19;99231.65;1816376;79;22072;-70
2020/12/25 14:41:23;;;;;;;22.35;17.80;;;;;;;4.06;91.27;99231.58;1816250;79;20945;-66
2020/12/25 14:43:52;;;;;;;20.32;16.15;;;;;;;4.10;91.48;99231.84;1816353;79;20945;-71
2020/12/25 14:46:20;;;;;;;23.75;15.00;;;;;;;4.13;91.31;99235.58;1816231;79;21634;-68
2020/12/25 14:48:48;;;;;;;19.48;14.55;;;;;;;4.15;91.34;99237.64;1816294;78;21486;-69
2020/12/25 14:51:20;;;;;;;18.50;13.88;;;;;;;4.16;91.35;99236.28;1816311;79;22305;-69
2020/12/25 14:53:48;;;;;;;18.70;14.55;;;;;;;4.19;91.38;99235.32;1816188;79;20941;-69
2020/12/25 14:56:24;;;;;;;15.95;12.98;;;;;;;4.21;91.36;99238.67;1816286;79;21495;-67
2020/12/25 14:58:52;;;;;;;16.43;14.03;;;;;;;4.30;91.60;99243.44;1816549;79;21602;-68
2020/12/25 15:01:20;;;;;;;24.12;15.43;;;;;;;4.30;91.60;99243.44;1816220;79;22132;-67
2020/12/25 15:03:49;;;;;;;20.40;15.50;;;;;;;4.34;91.07;99257.86;1816267;79;21437;-69
2020/12/25 15:06:23;;;;;;;25.05;17.25;;;;;;;4.35;90.98;99260.83;1816205;79;20938;-71
2020/12/25 15:08:52;;;;;;;17.98;15.08;;;;;;;4.38;90.87;99257.28;1816367;79;20997;-69
2020/12/25 15:11:24;;;;;;;13.60;10.23;;;;;;;4.39;90.80;99260.25;1816255;79;21036;-68
2020/12/25 15:13:53;;;;;;;14.65;10.00;;;;;;;4.41;90.46;99262.27;1816328;79;21008;-68
2020/12/25 15:16:22;;;;;;;12.13;9.00;;;;;;;4.43;90.16;99259.18;1816245;78;21418;-68
2020/12/25 15:18:51;;;;;;;9.95;7.05;;;;;;;4.44;89.96;99268.14;1816171;79;21036;-67
2020/12/25 15:21:19;;;;;;;6.87;6.10;;;;;;;4.47;89.70;99282.19;1816095;79;21475;-61
2020/12/25 15:23:48;;;;;;;6.08;5.37;;;;;;;4.50;89.20;99285.92;1815637;79;21044;-68
2020/12/25 15:26:17;;;;;;;6.65;4.95;;;;;;;4.52;88.46;99291.84;1815694;79;20953;-69
2020/12/25 15:28:45;;;;;;;6.30;5.42;;;;;;;4.49;87.80;99291.98;1815640;79;22338;-68
2020/12/25 15:31:14;;;;;;;6.25;5.60;;;;;;;4.43;87.43;99297.39;1815628;79;21570;-69
2020/12/25 15:33:42;;;;;;;8.68;7.05;;;;;;;4.39;87.20;99304.91;1815663;79;20973;-69
2020/12/25 15:36:17;;;;;;;10.25;7.28;;;;;;;4.32;86.98;99297.04;1815690;78;20985;-69
2020/12/25 15:38:45;;;;;;;12.58;7.25;;;;;;;4.26;86.98;99315.33;1815678;79;20981;-70
2020/12/25 15:41:14;;;;;;;10.23;8.45;;;;;;;4.22;86.91;99318.48;1815628;79;22339;-70
2020/12/25 15:43:45;;;;;;;18.48;9.40;;;;;;;4.17;86.81;99324.28;1815491;78;21617;-66
2020/12/25 15:46:13;;;;;;;14.50;8.78;;;;;;;4.11;86.81;99325.81;1815750;79;21553;-70
2020/12/25 15:48:42;;;;;;;19.05;10.68;;;;;;;4.06;86.88;99323.88;1815571;79;21454;-70
2020/12/25 15:51:12;;;;;;;18.42;9.15;;;;;;;4.02;86.87;99326.19;1815694;79;20961;-69
2020/12/25 15:53:41;;;;;;;15.23;8.53;;;;;;;3.99;86.78;99324.59;1815646;79;21483;-69
2020/12/25 15:56:10;;;;;;;17.90;8.90;;;;;;;3.95;86.79;99330.77;1815613;79;21029;-71
2020/12/25 15:58:38;;;;;;;19.77;11.15;;;;;;;3.94;86.85;99341.98;1815677;78;21570;-70
2020/12/25 16:01:08;;;;;;;22.80;12.40;;;;;;;3.94;86.82;99343.71;1815681;79;21519;-68
2020/12/25 16:03:37;;;;;;;24.60;14.18;;;;;;;3.93;86.72;99342.03;1815700;79;21479;-69
2020/12/25 16:06:06;;;;;;;24.07;15.85;;;;;;;3.90;86.72;99339.13;1815728;79;21987;-69
2020/12/25 16:08:34;;;;;;;23.85;15.48;;;;;;;3.89;86.90;99336.16;1815589;79;21459;-70
2020/12/25 16:11:03;;;;;;;19.48;13.50;;;;;;;3.89;86.98;99340.03;1815679;79;21566;-70
2020/12/25 16:13:32;;;;;;;17.75;12.05;;;;;;;3.90;86.97;99332.69;1815568;79;21558;-70
2020/12/25 16:16:00;;;;;;;17.55;10.90;;;;;;;3.89;86.92;99337.45;1815719;79;21479;-66
2020/12/25 16:18:28;;;;;;;16.67;9.70;;;;;;;3.89;87.11;99346.47;1815658;79;22223;-70
2020/12/25 16:20:57;;;;;;;17.30;11.38;;;;;;;3.90;86.93;99339.58;1815579;79;21578;-70
2020/12/25 16:23:25;;;;;;;20.90;14.10;;;;;;;3.88;86.86;99349.94;1815604;79;21321;-71
2020/12/25 16:25:53;;;;;;;18.40;13.53;;;;;;;3.87;86.81;99344.41;1815613;79;21570;-70
2020/12/25 16:28:22;;;;;;;15.70;11.68;;;;;;;3.87;86.78;99357.73;1815677;79;21614;-68
2020/12/25 16:30:50;;;;;;;12.03;9.65;;;;;;;3.85;86.75;99350.06;1815637;79;21649;-68
2020/12/25 16:33:19;;;;;;;13.25;9.58;;;;;;;3.84;86.69;99360.42;1815584;79;21474;-69
2020/12/25 16:35:47;;;;;;;8.85;6.28;;;;;;;3.83;86.65;99360.87;1815720;79;21388;-70
2020/12/25 16:38:16;;;;;;;5.42;4.65;;;;;;;3.81;86.52;99366.98;1815623;79;21498;-70
2020/12/25 16:40:44;;;;;;;6.33;5.70;;;;;;;3.81;86.41;99363.11;1815721;79;21435;-68
2020/12/25 16:43:14;;;;;;;7.58;6.40;;;;;;;3.80;86.20;99366.59;1815837;79;22159;-69
2020/12/25 16:45:42;;;;;;;7.05;5.65;;;;;;;3.79;86.12;99375.21;1815820;78;21439;-68
2020/12/25 16:48:11;;;;;;;8.10;6.45;;;;;;;3.78;86.13;99374.82;1815822;79;21669;-70
2020/12/25 16:50:39;;;;;;;10.40;7.45;;;;;;;3.76;86.07;99380.03;1815837;79;21546;-69
2020/12/25 16:53:07;;;;;;;11.33;9.45;;;;;;;3.75;85.96;99380.09;1815801;79;21471;-69
2020/12/25 16:55:37;;;;;;;19.45;16.23;;;;;;;3.72;85.99;99379.75;1815780;79;21431;-71
2020/12/25 16:58:05;;;;;;;19.57;16.62;;;;;;;3.69;86.06;99374.27;1815753;79;21534;-69
2020/12/25 17:00:34;;;;;;;13.80;11.50;;;;;;;3.68;86.19;99385.47;1815749;78;21590;-68
2020/12/25 17:03:03;;;;;;;12.82;10.75;;;;;;;3.69;86.35;99385.02;1815758;79;21577;-70
2020/12/25 17:05:31;;;;;;;8.53;7.72;;;;;;;3.70;86.38;99386.70;1815711;79;21601;-69
2020/12/25 17:08:00;;;;;;;11.38;9.20;;;;;;;3.67;86.30;99390.23;1815817;79;21483;-68
2020/12/25 17:10:29;;;;;;;17.67;14.98;;;;;;;3.65;86.43;99382.17;1815715;79;21495;-69
2020/12/25 17:12:58;;;;;;;25.97;19.35;;;;;;;3.65;86.42;99392.47;1815795;79;21499;-70
2020/12/25 17:15:27;;;;;;;22.35;16.45;;;;;;;3.65;86.51;99394.59;1815754;78;21480;-69
2020/12/25 17:17:55;;;;;;;23.73;18.17;;;;;;;3.66;86.50;99395.44;1815832;79;21506;-70
2020/12/25 17:20:23;;;;;;;18.80;13.95;;;;;;;3.64;86.48;99401.93;1815782;79;22156;-70
2020/12/25 17:22:52;;;;;;;16.10;11.53;;;;;;;3.62;86.51;99401.15;1815996;79;21593;-70
2020/12/25 17:25:20;;;;;;;15.10;11.03;;;;;;;3.61;86.54;99401.20;1816372;79;21602;-70
2020/12/25 17:27:49;;;;;;;17.45;12.45;;;;;;;3.60;86.56;99407.25;1816286;79;21545;-70
2020/12/25 17:30:17;;;;;;;13.68;11.68;;;;;;;3.59;86.59;99408.17;1816486;79;21451;-71
2020/12/25 17:32:47;;;;;;;12.13;8.70;;;;;;;3.58;86.56;99411.64;1816307;79;22167;-69
2020/12/25 17:35:16;;;;;;;11.83;7.35;;;;;;;3.58;86.58;99419.37;1816359;78;21479;-70
2020/12/25 17:37:45;;;;;;;7.30;6.37;;;;;;;3.59;86.39;99409.47;1816381;78;21539;-70
2020/12/25 17:40:15;;;;;;;9.98;7.40;;;;;;;3.57;86.14;99419.81;1816315;79;20918;-68
2020/12/25 17:42:44;;;;;;;8.85;7.80;;;;;;;3.56;86.16;99416.85;1816380;79;21665;-70
2020/12/25 17:45:12;;;;;;;8.48;7.35;;;;;;;3.57;85.83;99422.84;1816302;79;22351;-70
2020/12/25 17:47:40;;;;;;;7.25;6.55;;;;;;;3.55;85.70;99424.63;1816296;79;21470;-69
2020/12/25 17:50:08;;;;;;;6.12;5.53;;;;;;;3.55;85.66;99424.63;1816347;79;21466;-70
2020/12/25 17:52:39;;;;;;;6.90;5.90;;;;;;;3.53;85.50;99432.41;1816232;79;21605;-70
2020/12/25 17:55:07;;;;;;;7.50;6.80;;;;;;;3.51;85.40;99439.80;1816362;78;21490;-69
2020/12/25 17:57:36;;;;;;;6.03;5.53;;;;;;;3.48;85.31;99434.75;1816309;79;21486;-69
2020/12/25 18:00:05;;;;;;;5.55;4.95;;;;;;;3.45;85.32;99432.29;1816289;79;21522;-69
2020/12/25 18:02:33;;;;;;;5.20;4.70;;;;;;;3.44;85.39;99426.30;1816373;79;21380;-69
2020/12/25 18:05:02;;;;;;;5.42;4.78;;;;;;;3.46;85.35;99431.39;1816278;79;21083;-69
2020/12/25 18:07:30;;;;;;;4.10;3.70;;;;;;;3.45;85.25;99429.27;1816312;79;21609;-68
2020/12/25 18:09:59;;;;;;;4.53;4.12;;;;;;;3.45;84.99;99436.99;1816296;78;22343;-70
2020/12/25 18:12:27;;;;;;;5.28;4.25;;;;;;;3.46;84.91;99439.12;1816297;78;21558;-69
2020/12/25 18:14:56;;;;;;;5.62;3.70;;;;;;;3.46;84.77;99436.55;1816326;78;21491;-68
2020/12/25 18:17:24;;;;;;;4.45;4.00;;;;;;;3.44;84.71;99439.63;1816359;78;21538;-68